createdAt,value
2023-01-10T00:02:15.500Z,23.37
2023-01-10T00:05:20.282Z,23.37
2023-01-10T00:08:23.707Z,23.36
2023-01-10T00:11:44.925Z,23.36
2023-01-10T00:14:48.249Z,23.34
2023-01-10T00:17:53.178Z,23.38
2023-01-10T00:20:56.501Z,23.36
2023-01-10T00:24:08.722Z,23.36
2023-01-10T00:27:17.821Z,23.34
2023-01-10T00:30:21.836Z,23.34
2023-01-10T00:33:26.479Z,23.35
2023-01-10T00:36:30.507Z,23.34
2023-01-10T00:39:33.841Z,23.34
2023-01-10T00:42:55.895Z,23.33
2023-01-10T00:45:59.219Z,23.31
2023-01-10T00:49:08.642Z,23.33
2023-01-10T00:52:11.980Z,23.31
2023-01-10T00:55:15.901Z,23.32
2023-01-10T00:58:19.349Z,23.31
2023-01-10T01:01:23.243Z,23.31
2023-01-10T01:04:28.014Z,23.32
2023-01-10T01:07:32.381Z,23.30
2023-01-10T01:10:36.002Z,23.29
2023-01-10T01:13:40.155Z,23.29
2023-01-10T01:16:43.430Z,23.29
2023-01-10T01:19:48.717Z,23.30
2023-01-10T01:22:51.917Z,23.28
2023-01-10T01:25:57.127Z,23.28
2023-01-10T01:29:00.409Z,23.28
2023-01-10T01:32:04.553Z,23.28
2023-01-10T01:35:15.701Z,23.30
2023-01-10T01:38:19.835Z,23.27
2023-01-10T01:41:40.558Z,23.28
2023-01-10T01:44:44.282Z,23.26
2023-01-10T01:47:54.639Z,23.28
2023-01-10T01:51:09.539Z,23.29
2023-01-10T01:54:14.649Z,23.26
2023-01-10T01:57:25.681Z,23.28
2023-01-10T02:00:29.056Z,23.25
2023-01-10T02:03:33.296Z,23.25
2023-01-10T02:06:38.049Z,23.26
2023-01-10T02:09:49.072Z,23.25
2023-01-10T02:12:56.338Z,23.24
2023-01-10T02:16:01.413Z,23.24
2023-01-10T02:19:12.954Z,23.24
2023-01-10T02:22:50.850Z,23.32
2023-01-10T02:26:40.702Z,23.28
2023-01-10T02:30:38.573Z,23.26
2023-01-10T02:33:54.397Z,23.20
2023-01-10T02:37:09.657Z,23.23
2023-01-10T02:40:24.251Z,23.22
2023-01-10T02:43:36.216Z,23.22
2023-01-10T02:46:41.638Z,23.21
2023-01-10T02:49:49.425Z,23.24
2023-01-10T02:52:53.505Z,23.22
2023-01-10T02:56:20.743Z,23.27
2023-01-10T03:00:03.939Z,23.27
2023-01-10T03:03:33.250Z,23.23
2023-01-10T03:06:53.671Z,23.24
2023-01-10T03:10:06.642Z,23.20
2023-01-10T03:13:17.450Z,23.21
2023-01-10T03:16:29.488Z,23.21
2023-01-10T03:19:42.069Z,23.22
2023-01-10T03:22:49.647Z,23.24
2023-01-10T03:25:57.591Z,23.23
2023-01-10T03:29:09.031Z,23.26
2023-01-10T03:32:17.026Z,23.25
2023-01-10T03:35:25.615Z,23.26
2023-01-10T03:38:42.808Z,23.26
2023-01-10T03:42:00.646Z,23.25
2023-01-10T03:45:13.508Z,23.26
2023-01-10T03:48:19.960Z,23.22
2023-01-10T03:51:23.804Z,23.22
2023-01-10T03:54:29.450Z,23.25
2023-01-10T03:57:32.910Z,23.24
2023-01-10T04:00:36.641Z,23.24
2023-01-10T04:03:39.923Z,23.24
2023-01-10T04:06:43.869Z,23.26
2023-01-10T04:09:48.550Z,23.28
2023-01-10T04:12:52.465Z,23.24
2023-01-10T04:15:55.826Z,23.25
2023-01-10T04:18:59.783Z,23.24
2023-01-10T04:22:03.298Z,23.24
2023-01-10T04:25:09.741Z,23.25
2023-01-10T04:28:13.002Z,23.23
2023-01-10T04:31:17.046Z,23.23
2023-01-10T04:34:21.707Z,23.23
2023-01-10T04:37:25.760Z,23.21
2023-01-10T04:40:30.447Z,23.24
2023-01-10T04:43:34.489Z,23.23
2023-01-10T04:46:37.792Z,23.23
2023-01-10T04:49:41.595Z,23.23
2023-01-10T04:52:44.916Z,23.23
2023-01-10T04:55:50.933Z,23.24
2023-01-10T04:58:54.396Z,23.22
2023-01-10T05:01:58.952Z,23.22
2023-01-10T05:05:02.280Z,23.21
2023-01-10T05:08:06.505Z,23.22
2023-01-10T05:11:11.595Z,23.22
2023-01-10T05:14:15.363Z,23.21
2023-01-10T05:17:18.694Z,23.21
2023-01-10T05:20:22.541Z,23.22
2023-01-10T05:23:25.809Z,23.22
2023-01-10T05:26:31.293Z,23.22
2023-01-10T05:29:35.520Z,23.21
2023-01-10T05:32:39.078Z,23.21
2023-01-10T05:35:42.390Z,23.21
2023-01-10T05:38:46.463Z,23.20
2023-01-10T05:41:51.276Z,23.21
2023-01-10T05:44:55.675Z,23.20
2023-01-10T05:47:58.939Z,23.20
2023-01-10T05:51:03.051Z,23.20
2023-01-10T05:54:06.833Z,23.20
2023-01-10T05:57:12.459Z,23.21
2023-01-10T06:00:17.785Z,23.20
2023-01-10T06:03:21.896Z,23.20
2023-01-10T06:06:25.187Z,23.18
2023-01-10T06:09:29.029Z,23.19
2023-01-10T06:12:33.611Z,23.21
2023-01-10T06:15:38.074Z,23.20
2023-01-10T06:18:41.449Z,23.20
2023-01-10T06:21:45.370Z,23.20
2023-01-10T06:24:48.566Z,23.20
2023-01-10T06:27:53.728Z,23.22
2023-01-10T06:30:56.942Z,23.20
2023-01-10T06:34:00.495Z,23.21
2023-01-10T06:37:03.817Z,23.21
2023-01-10T06:40:09.327Z,23.21
2023-01-10T06:43:13.945Z,23.21
2023-01-10T06:46:20.165Z,23.22
2023-01-10T06:49:23.560Z,23.22
2023-01-10T06:52:27.661Z,23.22
2023-01-10T06:55:32.064Z,23.22
2023-01-10T06:58:38.769Z,23.26
2023-01-10T07:01:42.074Z,23.22
2023-01-10T07:04:45.919Z,23.24
2023-01-10T07:07:49.183Z,23.25
2023-01-10T07:10:53.096Z,23.29
2023-01-10T07:13:57.621Z,23.33
2023-01-10T07:17:01.858Z,23.34
2023-01-10T07:20:06.037Z,23.35
2023-01-10T07:23:11.043Z,23.36
2023-01-10T07:26:17.690Z,23.34
2023-01-10T07:29:23.084Z,23.36
2023-01-10T07:32:26.338Z,23.34
2023-01-10T07:35:30.376Z,23.34
2023-01-10T07:38:33.652Z,23.33
2023-01-10T07:41:37.720Z,23.33
2023-01-10T07:44:42.304Z,23.33
2023-01-10T07:47:46.419Z,23.30
2023-01-10T07:50:49.608Z,23.29
2023-01-10T07:53:53.543Z,23.29
2023-01-10T07:56:56.912Z,23.30
2023-01-10T08:00:02.026Z,23.32
2023-01-10T08:03:08.418Z,23.29
2023-01-10T08:06:13.142Z,23.29
2023-01-10T08:09:17.102Z,23.29
2023-01-10T08:12:24.527Z,23.30
2023-01-10T08:15:29.179Z,23.29
2023-01-10T08:18:33.153Z,23.27
2023-01-10T08:21:36.583Z,23.28
2023-01-10T08:24:40.727Z,23.28
2023-01-10T08:27:43.954Z,23.27
2023-01-10T08:30:50.590Z,23.28
2023-01-10T08:33:53.934Z,23.25
2023-01-10T08:36:58.208Z,23.25
2023-01-10T08:40:01.375Z,23.24
2023-01-10T08:43:08.153Z,23.25
2023-01-10T08:46:12.823Z,23.25
2023-01-10T08:49:17.147Z,23.23
2023-01-10T08:52:20.882Z,23.23
2023-01-10T08:55:24.595Z,23.23
2023-01-10T08:58:27.847Z,23.23
2023-01-10T09:01:33.679Z,23.22
2023-01-10T09:04:36.944Z,23.22
2023-01-10T09:07:42.152Z,23.21
2023-01-10T09:10:45.388Z,23.21
2023-01-10T09:13:51.375Z,23.21
2023-01-10T09:16:56.022Z,23.22
2023-01-10T09:19:59.797Z,23.20
2023-01-10T09:23:08.375Z,23.22
2023-01-10T09:26:12.237Z,23.20
2023-01-10T09:29:15.476Z,23.19
2023-01-10T09:32:20.801Z,23.21
2023-01-10T09:35:26.650Z,23.21
2023-01-10T09:38:30.301Z,23.21
2023-01-10T09:42:01.364Z,23.28
2023-01-10T09:45:20.552Z,23.29
2023-01-10T09:48:38.255Z,23.30
2023-01-10T09:51:48.754Z,23.32
2023-01-10T09:54:57.215Z,23.36
2023-01-10T09:58:07.815Z,23.38
2023-01-10T10:01:18.897Z,23.38
2023-01-10T10:04:35.127Z,23.39
2023-01-10T10:07:38.610Z,23.34
2023-01-10T10:10:58.309Z,23.36
2023-01-10T10:14:12.313Z,23.35
2023-01-10T10:17:37.866Z,23.38
2023-01-10T10:20:58.822Z,23.36
2023-01-10T10:24:43.195Z,23.35
2023-01-10T10:28:10.510Z,23.35
2023-01-10T10:31:28.051Z,23.34
2023-01-10T10:34:38.736Z,23.35
2023-01-10T10:37:49.717Z,23.38
2023-01-10T10:40:56.752Z,23.35
2023-01-10T10:44:07.012Z,23.36
2023-01-10T10:47:17.957Z,23.37
2023-01-10T10:50:32.732Z,23.38
2023-01-10T10:53:37.816Z,23.36
2023-01-10T10:56:42.742Z,23.37
2023-01-10T10:59:49.765Z,23.41
2023-01-10T11:03:02.459Z,23.42
2023-01-10T11:06:09.963Z,23.42
2023-01-10T11:09:15.410Z,23.41
2023-01-10T11:12:22.162Z,23.40
2023-01-10T11:15:40.472Z,23.46
2023-01-10T11:18:43.669Z,23.37
2023-01-10T11:21:53.436Z,23.38
2023-01-10T11:25:02.081Z,23.38
2023-01-10T11:28:09.162Z,23.35
2023-01-10T11:31:13.829Z,23.34
2023-01-10T11:34:27.163Z,23.38
2023-01-10T11:37:33.408Z,23.33
2023-01-10T11:40:39.563Z,23.33
2023-01-10T11:43:43.332Z,23.32
2023-01-10T11:46:49.781Z,23.33
2023-01-10T11:49:53.362Z,23.34
2023-01-10T11:52:57.890Z,23.35
2023-01-10T11:56:04.260Z,23.37
2023-01-10T11:59:16.455Z,23.40
2023-01-10T12:02:28.057Z,23.42
2023-01-10T12:05:32.517Z,23.38
2023-01-10T12:08:38.589Z,23.41
2023-01-10T12:11:43.718Z,23.43
2023-01-10T12:14:48.778Z,23.44
2023-01-10T12:17:55.260Z,23.44
2023-01-10T12:21:00.539Z,23.45
2023-01-10T12:24:13.530Z,23.45
2023-01-10T12:27:21.755Z,23.47
2023-01-10T12:30:34.692Z,23.48
2023-01-10T12:33:46.619Z,23.45
2023-01-10T12:37:06.468Z,23.49
2023-01-10T12:40:24.204Z,23.50
2023-01-10T12:43:57.032Z,23.50
2023-01-10T12:47:13.410Z,23.46
2023-01-10T12:50:25.131Z,23.48
2023-01-10T12:53:34.945Z,23.52
2023-01-10T12:56:40.505Z,23.50
2023-01-10T12:59:46.432Z,23.52
2023-01-10T13:02:54.074Z,23.51
2023-01-10T13:06:00.051Z,23.52
2023-01-10T13:09:10.039Z,23.52
2023-01-10T13:12:22.017Z,23.51
2023-01-10T13:15:33.521Z,23.52
2023-01-10T13:18:36.901Z,23.48
2023-01-10T13:21:43.572Z,23.48
2023-01-10T13:24:58.211Z,23.54
2023-01-10T13:28:10.186Z,23.49
2023-01-10T13:31:28.226Z,23.54
2023-01-10T13:34:36.838Z,23.48
2023-01-10T13:37:44.125Z,23.47
2023-01-10T13:41:03.527Z,23.52
2023-01-10T13:44:12.633Z,23.48
2023-01-10T13:48:03.417Z,23.53
2023-01-10T13:51:24.622Z,23.50
2023-01-10T13:54:29.579Z,23.42
2023-01-10T13:57:56.953Z,23.52
2023-01-10T14:01:20.742Z,23.41
2023-01-10T14:04:30.284Z,23.44
2023-01-10T14:07:45.701Z,23.44
2023-01-10T14:11:07.327Z,23.44
2023-01-10T14:14:25.004Z,23.49
2023-01-10T14:17:31.215Z,23.44
2023-01-10T14:20:37.990Z,23.46
2023-01-10T14:23:49.248Z,23.45
2023-01-10T14:26:57.472Z,23.43
2023-01-10T14:30:04.047Z,23.45
2023-01-10T14:33:16.880Z,23.45
2023-01-10T14:36:26.709Z,23.45
2023-01-10T14:39:32.413Z,23.46
2023-01-10T14:42:37.298Z,23.49
2023-01-10T14:45:54.869Z,23.53
2023-01-10T14:49:00.836Z,23.50
2023-01-10T14:52:20.779Z,23.58
2023-01-10T14:55:24.376Z,23.49
2023-01-10T14:58:28.090Z,23.51
2023-01-10T15:01:32.097Z,23.51
2023-01-10T15:04:39.065Z,23.51
2023-01-10T15:07:43.695Z,23.52
2023-01-10T15:10:51.839Z,23.52
2023-01-10T15:14:03.367Z,23.53
2023-01-10T15:17:13.124Z,23.52
2023-01-10T15:20:18.929Z,23.52
2023-01-10T15:23:27.317Z,23.53
2023-01-10T15:26:33.458Z,23.53
2023-01-10T15:29:44.755Z,23.53
2023-01-10T15:32:52.705Z,23.54
2023-01-10T15:35:57.174Z,23.53
2023-01-10T15:39:01.888Z,23.56
2023-01-10T15:42:10.612Z,23.58
2023-01-10T15:45:30.905Z,23.62
2023-01-10T15:48:37.161Z,23.53
2023-01-10T15:51:41.474Z,23.52
2023-01-10T15:54:46.842Z,23.54
2023-01-10T15:57:53.150Z,23.53
2023-01-10T16:00:59.975Z,23.52
2023-01-10T16:04:06.499Z,23.52
2023-01-10T16:07:19.932Z,23.53
2023-01-10T16:10:28.105Z,23.51
2023-01-10T16:13:33.167Z,23.48
2023-01-10T16:16:36.690Z,23.46
2023-01-10T16:19:41.267Z,23.47
2023-01-10T16:22:46.847Z,23.46
2023-01-10T16:25:56.083Z,23.48
2023-01-10T16:28:59.264Z,23.45
2023-01-10T16:32:02.944Z,23.46
2023-01-10T16:35:07.277Z,23.48
2023-01-10T16:38:12.426Z,23.50
2023-01-10T16:41:34.984Z,23.51
2023-01-10T16:44:38.776Z,23.48
2023-01-10T16:47:41.942Z,23.49
2023-01-10T16:50:48.030Z,23.52
2023-01-10T16:53:51.912Z,23.53
2023-01-10T16:56:57.406Z,23.55
2023-01-10T17:00:00.655Z,23.55
2023-01-10T17:03:07.697Z,23.56
2023-01-10T17:06:12.622Z,23.58
2023-01-10T17:09:24.657Z,23.60
2023-01-10T17:12:35.542Z,23.60
2023-01-10T17:15:39.244Z,23.55
2023-01-10T17:18:43.087Z,23.58
2023-01-10T17:21:46.866Z,23.59
2023-01-10T17:24:50.384Z,23.59
2023-01-10T17:27:55.733Z,23.60
2023-01-10T17:30:59.951Z,23.61
2023-01-10T17:34:03.868Z,23.60
2023-01-10T17:37:07.531Z,23.62
2023-01-10T17:40:13.054Z,23.63
2023-01-10T17:43:20.104Z,23.66
2023-01-10T17:46:24.904Z,23.62
2023-01-10T17:49:28.134Z,23.61
2023-01-10T17:52:31.948Z,23.62
2023-01-10T17:55:35.130Z,23.63
2023-01-10T17:58:40.947Z,23.65
2023-01-10T18:01:44.311Z,23.63
2023-01-10T18:04:48.165Z,23.63
2023-01-10T18:07:51.364Z,23.64
2023-01-10T18:11:01.131Z,23.68
2023-01-10T18:14:20.024Z,23.65
2023-01-10T18:17:23.974Z,23.62
2023-01-10T18:20:27.902Z,23.63
2023-01-10T18:23:32.933Z,23.63
2023-01-10T18:26:36.177Z,23.61
2023-01-10T18:29:41.726Z,23.62
2023-01-10T18:32:44.885Z,23.60
2023-01-10T18:35:49.070Z,23.59
2023-01-10T18:38:53.460Z,23.60
2023-01-10T18:41:57.368Z,23.58
2023-01-10T18:45:02.028Z,23.58
2023-01-10T18:48:06.785Z,23.56
2023-01-10T18:51:12.417Z,23.53
2023-01-10T18:54:18.972Z,23.54
2023-01-10T18:57:22.524Z,23.52
2023-01-10T19:00:28.495Z,23.52
2023-01-10T19:03:33.062Z,23.49
2023-01-10T19:06:36.928Z,23.50
2023-01-10T19:09:40.075Z,23.51
2023-01-10T19:12:43.856Z,23.53
2023-01-10T19:15:49.002Z,23.54
2023-01-10T19:18:55.545Z,23.56
2023-01-10T19:21:59.011Z,23.59
2023-01-10T19:25:02.700Z,23.62
2023-01-10T19:28:06.711Z,23.61
2023-01-10T19:31:16.993Z,23.65
2023-01-10T19:34:20.350Z,23.61
2023-01-10T19:37:24.076Z,23.61
2023-01-10T19:40:27.258Z,23.62
2023-01-10T19:43:31.175Z,23.63
2023-01-10T19:46:37.145Z,23.66
2023-01-10T19:49:41.137Z,23.65
2023-01-10T19:52:46.420Z,23.64
2023-01-10T19:55:50.248Z,23.63
2023-01-10T19:58:55.495Z,23.64
2023-01-10T20:02:01.155Z,23.64
2023-01-10T20:05:05.257Z,23.61
2023-01-10T20:08:09.541Z,23.62
2023-01-10T20:11:13.143Z,23.62
2023-01-10T20:14:19.922Z,23.63
2023-01-10T20:17:24.866Z,23.63
2023-01-10T20:20:28.715Z,23.65
2023-01-10T20:23:32.243Z,23.66
2023-01-10T20:26:35.827Z,23.66
2023-01-10T20:29:40.805Z,23.65
2023-01-10T20:32:45.817Z,23.67
2023-01-10T20:35:57.396Z,23.71
2023-01-10T20:39:01.477Z,23.66
2023-01-10T20:42:04.778Z,23.67
2023-01-10T20:45:09.809Z,23.68
2023-01-10T20:48:14.459Z,23.68
2023-01-10T20:51:21.666Z,23.68
2023-01-10T20:54:25.557Z,23.67
2023-01-10T20:57:29.437Z,23.68
2023-01-10T21:00:33.675Z,23.68
2023-01-10T21:03:39.161Z,23.69
2023-01-10T21:06:42.443Z,23.70
2023-01-10T21:09:46.062Z,23.74
2023-01-10T21:12:49.244Z,23.78
2023-01-10T21:15:56.752Z,23.82
2023-01-10T21:19:03.094Z,23.83
2023-01-10T21:22:06.717Z,23.80
2023-01-10T21:25:11.015Z,23.83
2023-01-10T21:28:14.911Z,23.83
2023-01-10T21:31:21.112Z,23.85
2023-01-10T21:34:26.296Z,23.85
2023-01-10T21:37:29.556Z,23.85
2023-01-10T21:40:34.621Z,23.86
2023-01-10T21:43:38.720Z,23.87
2023-01-10T21:46:44.642Z,23.87
2023-01-10T21:49:49.276Z,23.88
2023-01-10T21:52:52.971Z,23.88
2023-01-10T21:55:59.901Z,23.92
2023-01-10T21:59:03.774Z,23.85
2023-01-10T22:02:06.931Z,23.83
2023-01-10T22:05:12.367Z,23.83
2023-01-10T22:08:15.605Z,23.79
2023-01-10T22:11:19.389Z,23.78
2023-01-10T22:14:22.605Z,23.76
2023-01-10T22:17:26.257Z,23.75
2023-01-10T22:20:30.841Z,23.74
2023-01-10T22:23:34.735Z,23.71
2023-01-10T22:26:37.934Z,23.69
2023-01-10T22:29:41.373Z,23.68
2023-01-10T22:32:44.580Z,23.67
2023-01-10T22:35:49.943Z,23.66
2023-01-10T22:38:53.279Z,23.64
2023-01-10T22:41:56.919Z,23.64
2023-01-10T22:45:00.193Z,23.63
2023-01-10T22:48:04.158Z,23.61
2023-01-10T22:51:09.487Z,23.61
2023-01-10T22:54:15.884Z,23.58
2023-01-10T22:57:19.150Z,23.57
2023-01-10T23:00:23.386Z,23.55
2023-01-10T23:03:26.730Z,23.54
2023-01-10T23:06:31.939Z,23.55
2023-01-10T23:09:35.102Z,23.52
2023-01-10T23:12:38.711Z,23.51
2023-01-10T23:15:42.213Z,23.51
2023-01-10T23:18:46.317Z,23.48
2023-01-10T23:21:51.385Z,23.49
2023-01-10T23:24:54.954Z,23.46
2023-01-10T23:27:58.158Z,23.45
2023-01-10T23:31:02.396Z,23.45
2023-01-10T23:34:05.571Z,23.43
2023-01-10T23:37:10.824Z,23.44
2023-01-10T23:40:14.595Z,23.42
2023-01-10T23:43:18.877Z,23.40
2023-01-10T23:46:22.257Z,23.40
2023-01-10T23:49:25.996Z,23.40
2023-01-10T23:52:30.599Z,23.41
2023-01-10T23:55:35.173Z,23.39
2023-01-10T23:58:39.249Z,23.38
